sensor_id;sensor_type;location;lat;lon;timestamp;P1;durP1;ratioP1;P2;durP2;ratioP2
43519;SDS011;46848;51.980;5.918;2023-07-30T00:00:43;4.85;;;2.20;;
43519;SDS011;46848;51.980;5.918;2023-07-30T00:03:08;4.68;;;2.00;;
43519;SDS011;46848;51.980;5.918;2023-07-30T00:05:34;8.13;;;2.53;;
43519;SDS011;46848;51.980;5.918;2023-07-30T00:08:00;5.35;;;2.00;;
43519;SDS011;46848;51.980;5.918;2023-07-30T00:10:25;5.53;;;2.30;;
43519;SDS011;46848;51.980;5.918;2023-07-30T00:12:51;5.93;;;2.00;;
43519;SDS011;46848;51.980;5.918;2023-07-30T00:15:17;6.63;;;2.22;;
43519;SDS011;46848;51.980;5.918;2023-07-30T00:17:42;4.82;;;2.20;;
43519;SDS011;46848;51.980;5.918;2023-07-30T00:20:08;7.28;;;2.10;;
43519;SDS011;46848;51.980;5.918;2023-07-30T00:22:34;5.05;;;2.17;;
43519;SDS011;46848;51.980;5.918;2023-07-30T00:24:59;5.20;;;2.15;;
43519;SDS011;46848;51.980;5.918;2023-07-30T00:27:25;6.63;;;2.35;;
43519;SDS011;46848;51.980;5.918;2023-07-30T00:29:51;7.93;;;2.58;;
43519;SDS011;46848;51.980;5.918;2023-07-30T00:32:16;5.20;;;2.08;;
43519;SDS011;46848;51.980;5.918;2023-07-30T00:34:43;6.63;;;2.40;;
43519;SDS011;46848;51.980;5.918;2023-07-30T00:37:08;4.13;;;2.13;;
43519;SDS011;46848;51.980;5.918;2023-07-30T00:39:34;4.88;;;2.00;;
43519;SDS011;46848;51.980;5.918;2023-07-30T00:42:00;9.15;;;2.58;;
43519;SDS011;46848;51.980;5.918;2023-07-30T00:44:26;8.10;;;2.33;;
43519;SDS011;46848;51.980;5.918;2023-07-30T00:46:51;6.70;;;1.90;;
43519;SDS011;46848;51.980;5.918;2023-07-30T00:49:17;7.15;;;1.92;;
43519;SDS011;46848;51.980;5.918;2023-07-30T00:51:43;3.55;;;1.50;;
43519;SDS011;46848;51.980;5.918;2023-07-30T00:54:10;9.25;;;2.78;;
43519;SDS011;46848;51.980;5.918;2023-07-30T00:56:36;6.15;;;2.00;;
43519;SDS011;46848;51.980;5.918;2023-07-30T00:59:01;6.07;;;1.95;;
43519;SDS011;46848;51.980;5.918;2023-07-30T01:01:27;5.10;;;1.92;;
43519;SDS011;46848;51.980;5.918;2023-07-30T01:03:57;7.53;;;2.35;;
43519;SDS011;46848;51.980;5.918;2023-07-30T01:06:23;4.55;;;1.90;;
43519;SDS011;46848;51.980;5.918;2023-07-30T01:08:48;9.48;;;2.05;;
43519;SDS011;46848;51.980;5.918;2023-07-30T01:11:14;7.68;;;1.88;;
43519;SDS011;46848;51.980;5.918;2023-07-30T01:13:40;6.70;;;1.90;;
43519;SDS011;46848;51.980;5.918;2023-07-30T01:16:07;7.70;;;1.88;;
43519;SDS011;46848;51.980;5.918;2023-07-30T01:18:33;5.55;;;1.92;;
43519;SDS011;46848;51.980;5.918;2023-07-30T01:20:59;7.68;;;2.33;;
43519;SDS011;46848;51.980;5.918;2023-07-30T01:23:25;6.78;;;1.65;;
43519;SDS011;46848;51.980;5.918;2023-07-30T01:26:07;6.05;;;2.05;;
43519;SDS011;46848;51.980;5.918;2023-07-30T01:28:40;6.57;;;1.95;;
43519;SDS011;46848;51.980;5.918;2023-07-30T01:31:09;6.45;;;2.30;;
43519;SDS011;46848;51.980;5.918;2023-07-30T01:33:41;8.02;;;2.35;;
43519;SDS011;46848;51.980;5.918;2023-07-30T01:36:09;5.22;;;2.35;;
43519;SDS011;46848;51.980;5.918;2023-07-30T01:38:39;6.40;;;2.05;;
43519;SDS011;46848;51.980;5.918;2023-07-30T01:41:06;7.82;;;2.10;;
43519;SDS011;46848;51.980;5.918;2023-07-30T01:43:31;4.13;;;2.00;;
43519;SDS011;46848;51.980;5.918;2023-07-30T01:45:57;8.48;;;3.05;;
43519;SDS011;46848;51.980;5.918;2023-07-30T01:48:23;7.15;;;2.10;;
43519;SDS011;46848;51.980;5.918;2023-07-30T01:50:48;5.47;;;1.85;;
43519;SDS011;46848;51.980;5.918;2023-07-30T01:53:14;6.65;;;2.20;;
43519;SDS011;46848;51.980;5.918;2023-07-30T01:55:39;4.63;;;1.88;;
43519;SDS011;46848;51.980;5.918;2023-07-30T01:58:08;6.72;;;2.50;;
43519;SDS011;46848;51.980;5.918;2023-07-30T02:00:34;6.05;;;2.22;;
43519;SDS011;46848;51.980;5.918;2023-07-30T02:03:00;5.88;;;2.13;;
43519;SDS011;46848;51.980;5.918;2023-07-30T02:05:26;6.68;;;2.28;;
43519;SDS011;46848;51.980;5.918;2023-07-30T02:07:51;9.27;;;2.63;;
43519;SDS011;46848;51.980;5.918;2023-07-30T02:10:17;7.60;;;2.25;;
43519;SDS011;46848;51.980;5.918;2023-07-30T02:12:43;4.53;;;1.92;;
43519;SDS011;46848;51.980;5.918;2023-07-30T02:15:08;6.40;;;2.28;;
43519;SDS011;46848;51.980;5.918;2023-07-30T02:17:34;6.70;;;2.25;;
43519;SDS011;46848;51.980;5.918;2023-07-30T02:19:59;6.88;;;2.17;;
43519;SDS011;46848;51.980;5.918;2023-07-30T02:22:25;7.90;;;1.88;;
43519;SDS011;46848;51.980;5.918;2023-07-30T02:24:50;7.20;;;2.17;;
43519;SDS011;46848;51.980;5.918;2023-07-30T02:27:16;5.93;;;2.35;;
43519;SDS011;46848;51.980;5.918;2023-07-30T02:29:42;5.60;;;2.60;;
43519;SDS011;46848;51.980;5.918;2023-07-30T02:32:07;9.18;;;2.38;;
43519;SDS011;46848;51.980;5.918;2023-07-30T02:34:33;9.50;;;2.80;;
43519;SDS011;46848;51.980;5.918;2023-07-30T02:36:59;5.65;;;2.10;;
43519;SDS011;46848;51.980;5.918;2023-07-30T02:39:24;8.50;;;2.58;;
43519;SDS011;46848;51.980;5.918;2023-07-30T02:41:50;5.82;;;2.17;;
43519;SDS011;46848;51.980;5.918;2023-07-30T02:44:15;6.45;;;2.20;;
43519;SDS011;46848;51.980;5.918;2023-07-30T02:46:41;5.43;;;2.33;;
43519;SDS011;46848;51.980;5.918;2023-07-30T02:49:07;5.25;;;1.90;;
43519;SDS011;46848;51.980;5.918;2023-07-30T02:51:33;6.57;;;2.63;;
43519;SDS011;46848;51.980;5.918;2023-07-30T02:53:59;7.40;;;2.42;;
43519;SDS011;46848;51.980;5.918;2023-07-30T02:56:29;10.82;;;2.80;;
43519;SDS011;46848;51.980;5.918;2023-07-30T02:58:55;9.73;;;2.70;;
43519;SDS011;46848;51.980;5.918;2023-07-30T03:01:21;7.93;;;2.88;;
43519;SDS011;46848;51.980;5.918;2023-07-30T03:03:47;6.30;;;2.40;;
43519;SDS011;46848;51.980;5.918;2023-07-30T03:06:13;11.73;;;2.53;;
43519;SDS011;46848;51.980;5.918;2023-07-30T03:08:39;9.57;;;3.20;;
43519;SDS011;46848;51.980;5.918;2023-07-30T03:11:04;6.72;;;2.60;;
43519;SDS011;46848;51.980;5.918;2023-07-30T03:13:30;8.07;;;2.75;;
43519;SDS011;46848;51.980;5.918;2023-07-30T03:15:56;5.72;;;2.42;;
43519;SDS011;46848;51.980;5.918;2023-07-30T03:18:21;8.77;;;2.78;;
43519;SDS011;46848;51.980;5.918;2023-07-30T03:20:47;10.63;;;3.20;;
43519;SDS011;46848;51.980;5.918;2023-07-30T03:23:13;7.93;;;2.45;;
43519;SDS011;46848;51.980;5.918;2023-07-30T03:25:38;5.68;;;2.60;;
43519;SDS011;46848;51.980;5.918;2023-07-30T03:28:04;6.63;;;2.80;;
43519;SDS011;46848;51.980;5.918;2023-07-30T03:30:30;7.93;;;2.63;;
43519;SDS011;46848;51.980;5.918;2023-07-30T03:32:55;8.02;;;2.95;;
43519;SDS011;46848;51.980;5.918;2023-07-30T03:35:21;9.55;;;3.17;;
43519;SDS011;46848;51.980;5.918;2023-07-30T03:37:47;6.90;;;3.03;;
43519;SDS011;46848;51.980;5.918;2023-07-30T03:40:12;7.40;;;3.10;;
43519;SDS011;46848;51.980;5.918;2023-07-30T03:42:38;12.40;;;2.90;;
43519;SDS011;46848;51.980;5.918;2023-07-30T03:45:04;13.05;;;3.17;;
43519;SDS011;46848;51.980;5.918;2023-07-30T03:47:30;7.25;;;3.08;;
43519;SDS011;46848;51.980;5.918;2023-07-30T03:49:56;11.73;;;3.38;;
43519;SDS011;46848;51.980;5.918;2023-07-30T03:52:21;7.60;;;3.15;;
43519;SDS011;46848;51.980;5.918;2023-07-30T03:54:47;8.90;;;3.28;;
43519;SDS011;46848;51.980;5.918;2023-07-30T03:57:12;8.93;;;3.28;;
43519;SDS011;46848;51.980;5.918;2023-07-30T03:59:38;9.63;;;3.38;;
43519;SDS011;46848;51.980;5.918;2023-07-30T04:02:04;9.65;;;3.58;;
43519;SDS011;46848;51.980;5.918;2023-07-30T04:04:29;16.33;;;4.45;;
43519;SDS011;46848;51.980;5.918;2023-07-30T04:06:55;12.40;;;4.07;;
43519;SDS011;46848;51.980;5.918;2023-07-30T04:09:20;11.50;;;3.53;;
43519;SDS011;46848;51.980;5.918;2023-07-30T04:11:46;8.93;;;3.70;;
43519;SDS011;46848;51.980;5.918;2023-07-30T04:14:12;10.15;;;3.42;;
43519;SDS011;46848;51.980;5.918;2023-07-30T04:16:37;11.73;;;4.10;;
43519;SDS011;46848;51.980;5.918;2023-07-30T04:19:03;12.07;;;3.47;;
43519;SDS011;46848;51.980;5.918;2023-07-30T04:21:28;11.73;;;4.18;;
43519;SDS011;46848;51.980;5.918;2023-07-30T04:23:54;11.35;;;3.65;;
43519;SDS011;46848;51.980;5.918;2023-07-30T04:26:20;9.30;;;3.78;;
43519;SDS011;46848;51.980;5.918;2023-07-30T04:28:45;9.02;;;3.22;;
43519;SDS011;46848;51.980;5.918;2023-07-30T04:31:11;14.18;;;4.05;;
43519;SDS011;46848;51.980;5.918;2023-07-30T04:33:36;9.93;;;4.32;;
43519;SDS011;46848;51.980;5.918;2023-07-30T04:36:02;11.52;;;3.72;;
43519;SDS011;46848;51.980;5.918;2023-07-30T04:38:28;12.38;;;4.40;;
43519;SDS011;46848;51.980;5.918;2023-07-30T04:40:57;10.82;;;4.00;;
43519;SDS011;46848;51.980;5.918;2023-07-30T04:43:23;12.32;;;4.10;;
43519;SDS011;46848;51.980;5.918;2023-07-30T04:45:48;12.13;;;4.25;;
43519;SDS011;46848;51.980;5.918;2023-07-30T04:48:14;11.63;;;3.70;;
43519;SDS011;46848;51.980;5.918;2023-07-30T04:50:40;14.48;;;4.45;;
43519;SDS011;46848;51.980;5.918;2023-07-30T04:53:07;12.05;;;4.00;;
43519;SDS011;46848;51.980;5.918;2023-07-30T04:55:33;10.38;;;4.07;;
43519;SDS011;46848;51.980;5.918;2023-07-30T04:57:59;12.32;;;4.05;;
43519;SDS011;46848;51.980;5.918;2023-07-30T05:00:25;11.63;;;4.45;;
43519;SDS011;46848;51.980;5.918;2023-07-30T05:02:50;11.77;;;4.07;;
43519;SDS011;46848;51.980;5.918;2023-07-30T05:05:16;13.48;;;4.85;;
43519;SDS011;46848;51.980;5.918;2023-07-30T05:07:41;12.35;;;4.13;;
43519;SDS011;46848;51.980;5.918;2023-07-30T05:10:07;12.77;;;4.75;;
43519;SDS011;46848;51.980;5.918;2023-07-30T05:12:35;13.55;;;4.50;;
43519;SDS011;46848;51.980;5.918;2023-07-30T05:15:01;11.05;;;4.40;;
43519;SDS011;46848;51.980;5.918;2023-07-30T05:17:28;11.15;;;4.22;;
43519;SDS011;46848;51.980;5.918;2023-07-30T05:19:54;14.13;;;4.68;;
43519;SDS011;46848;51.980;5.918;2023-07-30T05:22:19;11.52;;;4.57;;
43519;SDS011;46848;51.980;5.918;2023-07-30T05:24:45;12.88;;;4.72;;
43519;SDS011;46848;51.980;5.918;2023-07-30T05:27:11;12.60;;;5.28;;
43519;SDS011;46848;51.980;5.918;2023-07-30T05:29:36;11.57;;;4.93;;
43519;SDS011;46848;51.980;5.918;2023-07-30T05:32:02;12.50;;;4.95;;
43519;SDS011;46848;51.980;5.918;2023-07-30T05:34:27;13.48;;;4.97;;
43519;SDS011;46848;51.980;5.918;2023-07-30T05:36:53;15.73;;;6.07;;
43519;SDS011;46848;51.980;5.918;2023-07-30T05:39:19;14.93;;;4.75;;
43519;SDS011;46848;51.980;5.918;2023-07-30T05:41:44;15.25;;;4.97;;
43519;SDS011;46848;51.980;5.918;2023-07-30T05:44:10;14.48;;;5.63;;
43519;SDS011;46848;51.980;5.918;2023-07-30T05:46:36;14.18;;;5.22;;
43519;SDS011;46848;51.980;5.918;2023-07-30T05:49:01;15.13;;;5.63;;
43519;SDS011;46848;51.980;5.918;2023-07-30T05:51:27;14.65;;;5.20;;
43519;SDS011;46848;51.980;5.918;2023-07-30T05:53:52;16.88;;;6.15;;
43519;SDS011;46848;51.980;5.918;2023-07-30T05:56:18;16.83;;;6.13;;
43519;SDS011;46848;51.980;5.918;2023-07-30T05:58:45;13.43;;;5.50;;
43519;SDS011;46848;51.980;5.918;2023-07-30T06:01:10;13.75;;;5.18;;
43519;SDS011;46848;51.980;5.918;2023-07-30T06:03:36;15.10;;;5.65;;
43519;SDS011;46848;51.980;5.918;2023-07-30T06:06:02;21.42;;;7.18;;
43519;SDS011;46848;51.980;5.918;2023-07-30T06:08:28;14.35;;;5.43;;
43519;SDS011;46848;51.980;5.918;2023-07-30T06:10:54;13.95;;;5.32;;
43519;SDS011;46848;51.980;5.918;2023-07-30T06:13:25;15.20;;;6.20;;
43519;SDS011;46848;51.980;5.918;2023-07-30T06:15:51;18.23;;;6.47;;
43519;SDS011;46848;51.980;5.918;2023-07-30T06:18:16;16.52;;;6.28;;
43519;SDS011;46848;51.980;5.918;2023-07-30T06:20:42;17.08;;;5.80;;
43519;SDS011;46848;51.980;5.918;2023-07-30T06:23:07;16.95;;;6.82;;
43519;SDS011;46848;51.980;5.918;2023-07-30T06:25:33;14.35;;;5.88;;
43519;SDS011;46848;51.980;5.918;2023-07-30T06:27:59;12.48;;;5.25;;
43519;SDS011;46848;51.980;5.918;2023-07-30T06:30:24;16.67;;;6.65;;
43519;SDS011;46848;51.980;5.918;2023-07-30T06:32:50;18.65;;;6.28;;
43519;SDS011;46848;51.980;5.918;2023-07-30T06:35:16;17.00;;;6.80;;
43519;SDS011;46848;51.980;5.918;2023-07-30T06:37:41;20.10;;;6.68;;
43519;SDS011;46848;51.980;5.918;2023-07-30T06:40:07;13.80;;;5.90;;
43519;SDS011;46848;51.980;5.918;2023-07-30T06:42:33;18.65;;;6.20;;
43519;SDS011;46848;51.980;5.918;2023-07-30T06:44:58;15.48;;;6.18;;
43519;SDS011;46848;51.980;5.918;2023-07-30T06:47:24;16.77;;;6.03;;
43519;SDS011;46848;51.980;5.918;2023-07-30T06:49:50;18.95;;;6.15;;
43519;SDS011;46848;51.980;5.918;2023-07-30T06:52:15;15.85;;;5.78;;
43519;SDS011;46848;51.980;5.918;2023-07-30T06:54:41;19.60;;;6.50;;
43519;SDS011;46848;51.980;5.918;2023-07-30T06:57:06;14.73;;;5.00;;
43519;SDS011;46848;51.980;5.918;2023-07-30T06:59:33;16.27;;;5.35;;
43519;SDS011;46848;51.980;5.918;2023-07-30T07:01:59;17.20;;;5.95;;
43519;SDS011;46848;51.980;5.918;2023-07-30T07:04:25;19.30;;;6.35;;
43519;SDS011;46848;51.980;5.918;2023-07-30T07:06:51;14.45;;;5.43;;
43519;SDS011;46848;51.980;5.918;2023-07-30T07:09:16;16.67;;;5.07;;
43519;SDS011;46848;51.980;5.918;2023-07-30T07:11:43;14.60;;;5.68;;
43519;SDS011;46848;51.980;5.918;2023-07-30T07:14:08;14.93;;;6.35;;
43519;SDS011;46848;51.980;5.918;2023-07-30T07:16:34;14.77;;;6.28;;
43519;SDS011;46848;51.980;5.918;2023-07-30T07:18:59;13.32;;;5.65;;
43519;SDS011;46848;51.980;5.918;2023-07-30T07:21:26;20.02;;;6.60;;
43519;SDS011;46848;51.980;5.918;2023-07-30T07:23:51;20.25;;;5.70;;
43519;SDS011;46848;51.980;5.918;2023-07-30T07:26:17;16.45;;;6.57;;
43519;SDS011;46848;51.980;5.918;2023-07-30T07:28:43;18.02;;;6.72;;
43519;SDS011;46848;51.980;5.918;2023-07-30T07:31:08;22.42;;;7.20;;
43519;SDS011;46848;51.980;5.918;2023-07-30T07:33:34;17.23;;;6.00;;
43519;SDS011;46848;51.980;5.918;2023-07-30T07:36:08;12.85;;;5.75;;
43519;SDS011;46848;51.980;5.918;2023-07-30T07:38:34;17.52;;;7.07;;
43519;SDS011;46848;51.980;5.918;2023-07-30T07:41:00;16.17;;;6.35;;
43519;SDS011;46848;51.980;5.918;2023-07-30T07:43:26;12.55;;;6.00;;
43519;SDS011;46848;51.980;5.918;2023-07-30T07:45:52;17.67;;;5.80;;
43519;SDS011;46848;51.980;5.918;2023-07-30T07:48:18;17.48;;;6.50;;
43519;SDS011;46848;51.980;5.918;2023-07-30T07:50:44;16.20;;;5.30;;
43519;SDS011;46848;51.980;5.918;2023-07-30T07:53:10;16.70;;;5.55;;
43519;SDS011;46848;51.980;5.918;2023-07-30T07:55:36;16.85;;;5.93;;
43519;SDS011;46848;51.980;5.918;2023-07-30T07:58:02;14.85;;;4.95;;
43519;SDS011;46848;51.980;5.918;2023-07-30T08:00:27;17.65;;;5.75;;
43519;SDS011;46848;51.980;5.918;2023-07-30T08:02:53;12.40;;;5.03;;
43519;SDS011;46848;51.980;5.918;2023-07-30T08:05:19;12.85;;;4.40;;
43519;SDS011;46848;51.980;5.918;2023-07-30T08:07:47;13.63;;;4.38;;
43519;SDS011;46848;51.980;5.918;2023-07-30T08:10:13;10.70;;;4.10;;
43519;SDS011;46848;51.980;5.918;2023-07-30T08:12:39;16.63;;;4.00;;
43519;SDS011;46848;51.980;5.918;2023-07-30T08:15:04;17.20;;;4.50;;
43519;SDS011;46848;51.980;5.918;2023-07-30T08:17:30;12.82;;;4.00;;
43519;SDS011;46848;51.980;5.918;2023-07-30T08:19:56;13.02;;;4.50;;
43519;SDS011;46848;51.980;5.918;2023-07-30T08:22:21;13.88;;;3.95;;
43519;SDS011;46848;51.980;5.918;2023-07-30T08:24:47;12.88;;;3.67;;
43519;SDS011;46848;51.980;5.918;2023-07-30T08:27:13;11.95;;;4.05;;
43519;SDS011;46848;51.980;5.918;2023-07-30T08:29:39;15.45;;;4.28;;
43519;SDS011;46848;51.980;5.918;2023-07-30T08:32:04;16.75;;;4.00;;
43519;SDS011;46848;51.980;5.918;2023-07-30T08:34:31;14.43;;;3.92;;
43519;SDS011;46848;51.980;5.918;2023-07-30T08:36:57;15.02;;;5.22;;
43519;SDS011;46848;51.980;5.918;2023-07-30T08:39:22;17.38;;;4.97;;
43519;SDS011;46848;51.980;5.918;2023-07-30T08:41:48;12.23;;;4.30;;
43519;SDS011;46848;51.980;5.918;2023-07-30T08:44:14;12.38;;;3.95;;
43519;SDS011;46848;51.980;5.918;2023-07-30T08:46:39;16.55;;;3.95;;
43519;SDS011;46848;51.980;5.918;2023-07-30T08:49:05;15.82;;;4.65;;
43519;SDS011;46848;51.980;5.918;2023-07-30T08:51:31;14.20;;;4.53;;
43519;SDS011;46848;51.980;5.918;2023-07-30T08:53:58;15.77;;;4.55;;
43519;SDS011;46848;51.980;5.918;2023-07-30T08:56:26;13.93;;;4.28;;
43519;SDS011;46848;51.980;5.918;2023-07-30T08:58:52;12.50;;;3.90;;
43519;SDS011;46848;51.980;5.918;2023-07-30T09:01:22;13.10;;;4.97;;
43519;SDS011;46848;51.980;5.918;2023-07-30T09:03:54;12.43;;;4.07;;
43519;SDS011;46848;51.980;5.918;2023-07-30T09:06:21;9.80;;;4.05;;
43519;SDS011;46848;51.980;5.918;2023-07-30T09:08:46;9.63;;;3.63;;
43519;SDS011;46848;51.980;5.918;2023-07-30T09:11:12;14.00;;;3.42;;
43519;SDS011;46848;51.980;5.918;2023-07-30T09:13:39;10.90;;;3.17;;
43519;SDS011;46848;51.980;5.918;2023-07-30T09:16:12;13.35;;;2.85;;
43519;SDS011;46848;51.980;5.918;2023-07-30T09:18:43;13.25;;;2.95;;
43519;SDS011;46848;51.980;5.918;2023-07-30T09:21:13;13.77;;;3.75;;
43519;SDS011;46848;51.980;5.918;2023-07-30T09:23:39;13.73;;;3.88;;
43519;SDS011;46848;51.980;5.918;2023-07-30T09:26:09;12.60;;;2.92;;
43519;SDS011;46848;51.980;5.918;2023-07-30T09:28:35;13.07;;;3.58;;
43519;SDS011;46848;51.980;5.918;2023-07-30T09:31:02;12.57;;;3.47;;
43519;SDS011;46848;51.980;5.918;2023-07-30T09:33:30;12.05;;;3.33;;
43519;SDS011;46848;51.980;5.918;2023-07-30T09:35:57;11.45;;;2.92;;
43519;SDS011;46848;51.980;5.918;2023-07-30T09:38:26;12.77;;;2.85;;
43519;SDS011;46848;51.980;5.918;2023-07-30T09:40:58;10.15;;;3.30;;
43519;SDS011;46848;51.980;5.918;2023-07-30T09:43:29;13.32;;;3.03;;
43519;SDS011;46848;51.980;5.918;2023-07-30T09:46:02;15.77;;;3.20;;
43519;SDS011;46848;51.980;5.918;2023-07-30T09:48:31;12.18;;;3.75;;
43519;SDS011;46848;51.980;5.918;2023-07-30T09:51:01;13.60;;;4.32;;
43519;SDS011;46848;51.980;5.918;2023-07-30T09:53:31;14.40;;;3.15;;
43519;SDS011;46848;51.980;5.918;2023-07-30T09:55:59;14.27;;;3.13;;
43519;SDS011;46848;51.980;5.918;2023-07-30T09:58:29;13.27;;;2.65;;
43519;SDS011;46848;51.980;5.918;2023-07-30T10:00:57;14.30;;;3.05;;
43519;SDS011;46848;51.980;5.918;2023-07-30T10:03:24;11.65;;;2.00;;
43519;SDS011;46848;51.980;5.918;2023-07-30T10:05:52;7.75;;;2.15;;
43519;SDS011;46848;51.980;5.918;2023-07-30T10:08:27;9.48;;;2.58;;
43519;SDS011;46848;51.980;5.918;2023-07-30T10:10:56;11.07;;;2.60;;
43519;SDS011;46848;51.980;5.918;2023-07-30T10:13:22;8.52;;;2.72;;
43519;SDS011;46848;51.980;5.918;2023-07-30T10:15:48;9.38;;;2.72;;
43519;SDS011;46848;51.980;5.918;2023-07-30T10:18:14;10.15;;;2.42;;
43519;SDS011;46848;51.980;5.918;2023-07-30T10:20:40;8.45;;;2.17;;
43519;SDS011;46848;51.980;5.918;2023-07-30T10:23:17;10.80;;;2.10;;
43519;SDS011;46848;51.980;5.918;2023-07-30T10:25:43;10.52;;;2.60;;
43519;SDS011;46848;51.980;5.918;2023-07-30T10:30:59;8.80;;;2.33;;
43519;SDS011;46848;51.980;5.918;2023-07-30T10:33:49;6.85;;;2.45;;
43519;SDS011;46848;51.980;5.918;2023-07-30T10:36:12;8.10;;;2.08;;
43519;SDS011;46848;51.980;5.918;2023-07-30T10:38:39;7.65;;;2.08;;
43519;SDS011;46848;51.980;5.918;2023-07-30T10:43:45;8.95;;;2.08;;
43519;SDS011;46848;51.980;5.918;2023-07-30T10:46:12;10.63;;;2.08;;
43519;SDS011;46848;51.980;5.918;2023-07-30T10:48:40;9.18;;;2.20;;
43519;SDS011;46848;51.980;5.918;2023-07-30T10:51:08;5.68;;;1.40;;
43519;SDS011;46848;51.980;5.918;2023-07-30T11:41:43;5.97;;;1.30;;
43519;SDS011;46848;51.980;5.918;2023-07-30T11:44:08;7.10;;;1.80;;
43519;SDS011;46848;51.980;5.918;2023-07-30T11:46:54;7.30;;;1.60;;
43519;SDS011;46848;51.980;5.918;2023-07-30T11:49:19;6.65;;;1.55;;
43519;SDS011;46848;51.980;5.918;2023-07-30T11:51:46;6.93;;;1.67;;
43519;SDS011;46848;51.980;5.918;2023-07-30T11:54:20;7.60;;;1.55;;
43519;SDS011;46848;51.980;5.918;2023-07-30T11:56:47;7.35;;;1.42;;
43519;SDS011;46848;51.980;5.918;2023-07-30T11:59:20;8.38;;;1.52;;
43519;SDS011;46848;51.980;5.918;2023-07-30T12:01:46;5.85;;;1.50;;
43519;SDS011;46848;51.980;5.918;2023-07-30T12:04:12;6.13;;;1.63;;
43519;SDS011;46848;51.980;5.918;2023-07-30T12:06:38;4.97;;;1.38;;
43519;SDS011;46848;51.980;5.918;2023-07-30T12:11:46;5.43;;;1.30;;
43519;SDS011;46848;51.980;5.918;2023-07-30T12:14:42;10.25;;;1.33;;
43519;SDS011;46848;51.980;5.918;2023-07-30T12:17:09;6.85;;;1.48;;
43519;SDS011;46848;51.980;5.918;2023-07-30T12:19:35;6.03;;;1.50;;
43519;SDS011;46848;51.980;5.918;2023-07-30T12:22:01;5.85;;;1.42;;
43519;SDS011;46848;51.980;5.918;2023-07-30T12:24:27;7.18;;;1.50;;
43519;SDS011;46848;51.980;5.918;2023-07-30T12:26:53;9.05;;;1.40;;
43519;SDS011;46848;51.980;5.918;2023-07-30T12:29:18;6.10;;;1.50;;
43519;SDS011;46848;51.980;5.918;2023-07-30T12:31:44;8.73;;;2.00;;
43519;SDS011;46848;51.980;5.918;2023-07-30T12:34:10;5.10;;;1.38;;
43519;SDS011;46848;51.980;5.918;2023-07-30T12:36:37;8.00;;;1.30;;
43519;SDS011;46848;51.980;5.918;2023-07-30T12:39:02;6.53;;;1.08;;
43519;SDS011;46848;51.980;5.918;2023-07-30T12:41:28;5.35;;;1.45;;
43519;SDS011;46848;51.980;5.918;2023-07-30T12:43:54;5.60;;;1.50;;
43519;SDS011;46848;51.980;5.918;2023-07-30T12:46:23;4.57;;;1.13;;
43519;SDS011;46848;51.980;5.918;2023-07-30T12:48:52;4.88;;;1.30;;
43519;SDS011;46848;51.980;5.918;2023-07-30T12:51:17;5.57;;;1.65;;
43519;SDS011;46848;51.980;5.918;2023-07-30T12:53:43;2.63;;;0.63;;
43519;SDS011;46848;51.980;5.918;2023-07-30T12:56:09;5.55;;;1.60;;
43519;SDS011;46848;51.980;5.918;2023-07-30T12:58:34;3.63;;;0.85;;
43519;SDS011;46848;51.980;5.918;2023-07-30T13:01:01;3.83;;;1.23;;
43519;SDS011;46848;51.980;5.918;2023-07-30T13:03:28;3.30;;;0.90;;
43519;SDS011;46848;51.980;5.918;2023-07-30T13:05:53;6.30;;;1.35;;
43519;SDS011;46848;51.980;5.918;2023-07-30T13:08:20;3.95;;;1.10;;
43519;SDS011;46848;51.980;5.918;2023-07-30T13:10:45;4.57;;;1.00;;
43519;SDS011;46848;51.980;5.918;2023-07-30T13:13:11;4.50;;;1.17;;
43519;SDS011;46848;51.980;5.918;2023-07-30T13:15:37;4.38;;;1.00;;
43519;SDS011;46848;51.980;5.918;2023-07-30T13:18:02;4.97;;;1.52;;
43519;SDS011;46848;51.980;5.918;2023-07-30T13:20:28;6.30;;;1.52;;
43519;SDS011;46848;51.980;5.918;2023-07-30T13:22:56;4.20;;;0.70;;
43519;SDS011;46848;51.980;5.918;2023-07-30T13:25:21;3.25;;;0.85;;
43519;SDS011;46848;51.980;5.918;2023-07-30T13:27:47;4.38;;;0.98;;
43519;SDS011;46848;51.980;5.918;2023-07-30T13:30:13;3.38;;;0.90;;
43519;SDS011;46848;51.980;5.918;2023-07-30T13:32:38;3.58;;;0.80;;
43519;SDS011;46848;51.980;5.918;2023-07-30T13:35:04;3.63;;;0.80;;
43519;SDS011;46848;51.980;5.918;2023-07-30T13:37:30;4.13;;;1.10;;
43519;SDS011;46848;51.980;5.918;2023-07-30T13:39:56;6.70;;;1.10;;
43519;SDS011;46848;51.980;5.918;2023-07-30T13:42:21;5.28;;;1.10;;
43519;SDS011;46848;51.980;5.918;2023-07-30T13:44:47;5.85;;;1.17;;
43519;SDS011;46848;51.980;5.918;2023-07-30T13:47:12;7.07;;;1.38;;
43519;SDS011;46848;51.980;5.918;2023-07-30T13:49:38;4.22;;;1.10;;
43519;SDS011;46848;51.980;5.918;2023-07-30T13:52:04;2.50;;;0.82;;
43519;SDS011;46848;51.980;5.918;2023-07-30T13:54:30;5.55;;;1.25;;
43519;SDS011;46848;51.980;5.918;2023-07-30T13:56:55;2.50;;;0.80;;
43519;SDS011;46848;51.980;5.918;2023-07-30T13:59:21;2.22;;;0.80;;
43519;SDS011;46848;51.980;5.918;2023-07-30T14:01:47;3.33;;;0.70;;
43519;SDS011;46848;51.980;5.918;2023-07-30T14:04:12;5.28;;;0.90;;
43519;SDS011;46848;51.980;5.918;2023-07-30T14:06:38;7.72;;;1.23;;
43519;SDS011;46848;51.980;5.918;2023-07-30T14:09:03;4.28;;;0.80;;
43519;SDS011;46848;51.980;5.918;2023-07-30T14:11:29;2.63;;;1.00;;
43519;SDS011;46848;51.980;5.918;2023-07-30T14:13:55;3.20;;;0.70;;
43519;SDS011;46848;51.980;5.918;2023-07-30T14:16:22;4.97;;;0.90;;
43519;SDS011;46848;51.980;5.918;2023-07-30T14:18:48;4.38;;;1.30;;
43519;SDS011;46848;51.980;5.918;2023-07-30T14:21:14;6.80;;;1.13;;
43519;SDS011;46848;51.980;5.918;2023-07-30T14:23:39;4.22;;;0.93;;
43519;SDS011;46848;51.980;5.918;2023-07-30T14:26:05;5.07;;;1.17;;
43519;SDS011;46848;51.980;5.918;2023-07-30T14:28:31;3.90;;;1.00;;
43519;SDS011;46848;51.980;5.918;2023-07-30T14:30:57;3.85;;;0.90;;
43519;SDS011;46848;51.980;5.918;2023-07-30T14:33:23;5.85;;;1.48;;
43519;SDS011;46848;51.980;5.918;2023-07-30T14:35:48;5.50;;;1.20;;
43519;SDS011;46848;51.980;5.918;2023-07-30T14:38:14;4.25;;;1.02;;
43519;SDS011;46848;51.980;5.918;2023-07-30T14:40:41;4.32;;;0.90;;
43519;SDS011;46848;51.980;5.918;2023-07-30T14:43:08;5.47;;;1.20;;
43519;SDS011;46848;51.980;5.918;2023-07-30T14:45:33;6.28;;;1.33;;
43519;SDS011;46848;51.980;5.918;2023-07-30T14:47:59;3.50;;;0.95;;
43519;SDS011;46848;51.980;5.918;2023-07-30T14:50:25;5.15;;;1.10;;
43519;SDS011;46848;51.980;5.918;2023-07-30T14:52:52;4.72;;;1.23;;
43519;SDS011;46848;51.980;5.918;2023-07-30T14:55:18;4.53;;;1.10;;
43519;SDS011;46848;51.980;5.918;2023-07-30T14:57:43;3.28;;;0.93;;
43519;SDS011;46848;51.980;5.918;2023-07-30T15:00:09;7.07;;;1.23;;
43519;SDS011;46848;51.980;5.918;2023-07-30T15:02:38;5.90;;;1.23;;
43519;SDS011;46848;51.980;5.918;2023-07-30T15:05:03;8.98;;;1.20;;
43519;SDS011;46848;51.980;5.918;2023-07-30T15:07:30;5.70;;;1.10;;
43519;SDS011;46848;51.980;5.918;2023-07-30T15:09:55;7.05;;;1.63;;
43519;SDS011;46848;51.980;5.918;2023-07-30T15:12:21;5.82;;;1.77;;
43519;SDS011;46848;51.980;5.918;2023-07-30T15:14:47;5.35;;;1.48;;
43519;SDS011;46848;51.980;5.918;2023-07-30T15:17:13;6.45;;;1.42;;
43519;SDS011;46848;51.980;5.918;2023-07-30T15:19:38;9.60;;;1.77;;
43519;SDS011;46848;51.980;5.918;2023-07-30T15:22:04;7.18;;;1.13;;
43519;SDS011;46848;51.980;5.918;2023-07-30T15:24:30;5.15;;;1.25;;
43519;SDS011;46848;51.980;5.918;2023-07-30T15:26:56;6.25;;;1.38;;
43519;SDS011;46848;51.980;5.918;2023-07-30T15:29:22;5.05;;;1.38;;
43519;SDS011;46848;51.980;5.918;2023-07-30T15:31:48;7.38;;;1.60;;
43519;SDS011;46848;51.980;5.918;2023-07-30T15:34:15;4.22;;;1.40;;